SAS449 ESGG-EKCH
Flight info
| Callsign | SAS449 |
|---|---|
| Flight time | 0h 26m |
| Altitude | 21000 |
| Route | TOPLA L996 ERNOV |
| Aircraft | A320/M-SDE3FGHIRWY/LB1 |
Departure
| Time | 2026-04-21 18:41 |
|---|---|
| Airport | Göteborg Landvetter Airport (ESGG) |
Arrival
| Time | 2026-04-21 19:07 |
|---|---|
| Airport | Copenhagen Kastrup Airport (EKCH) |
| Time | Latitude | Longitude | Altitude | Speed | Heading |
|---|---|---|---|---|---|
| 2026-04-21 18:15 | 57.66932 | 12.29465 | 516 ft | 0 kts | 116° |
| 2026-04-21 18:29 | 57.66933 | 12.29464 | 516 ft | 1 kts | 116° |
| 2026-04-21 18:29 | 57.66944 | 12.29423 | 516 ft | 4 kts | 116° |
| 2026-04-21 18:30 | 57.66957 | 12.29380 | 516 ft | 4 kts | 134° |
| 2026-04-21 18:30 | 57.66977 | 12.29355 | 516 ft | 4 kts | 176° |
| 2026-04-21 18:30 | 57.66989 | 12.29356 | 516 ft | 0 kts | 199° |
| 2026-04-21 18:33 | 57.66983 | 12.29344 | 516 ft | 2 kts | 231° |
| 2026-04-21 18:33 | 57.66982 | 12.29306 | 516 ft | 5 kts | 277° |
| 2026-04-21 18:33 | 57.67000 | 12.29225 | 516 ft | 8 kts | 291° |
| 2026-04-21 18:33 | 57.66977 | 12.29127 | 516 ft | 10 kts | 216° |
| 2026-04-21 18:34 | 57.66910 | 12.29064 | 516 ft | 12 kts | 206° |
| 2026-04-21 18:34 | 57.66829 | 12.28990 | 516 ft | 14 kts | 206° |
| 2026-04-21 18:34 | 57.66734 | 12.28903 | 516 ft | 16 kts | 206° |
| 2026-04-21 18:34 | 57.66664 | 12.28772 | 515 ft | 16 kts | 265° |
| 2026-04-21 18:35 | 57.66632 | 12.28644 | 513 ft | 18 kts | 216° |
| 2026-04-21 18:35 | 57.66468 | 12.28495 | 511 ft | 21 kts | 206° |
| 2026-04-21 18:35 | 57.66326 | 12.28366 | 511 ft | 24 kts | 206° |
| 2026-04-21 18:35 | 57.66168 | 12.28220 | 510 ft | 27 kts | 205° |
| 2026-04-21 18:36 | 57.65995 | 12.28063 | 508 ft | 28 kts | 206° |
| 2026-04-21 18:36 | 57.65824 | 12.27908 | 506 ft | 27 kts | 207° |
| 2026-04-21 18:36 | 57.65660 | 12.27758 | 504 ft | 27 kts | 206° |
| 2026-04-21 18:36 | 57.65478 | 12.27592 | 502 ft | 31 kts | 206° |
| 2026-04-21 18:37 | 57.65296 | 12.27427 | 498 ft | 28 kts | 206° |
| 2026-04-21 18:37 | 57.65173 | 12.27316 | 487 ft | 18 kts | 205° |
| 2026-04-21 18:37 | 57.65074 | 12.27227 | 488 ft | 11 kts | 206° |
| 2026-04-21 18:37 | 57.64993 | 12.27151 | 489 ft | 15 kts | 206° |
| 2026-04-21 18:38 | 57.64892 | 12.27057 | 486 ft | 13 kts | 211° |
| 2026-04-21 18:38 | 57.64880 | 12.26939 | 482 ft | 4 kts | 298° |
| 2026-04-21 18:38 | 57.64881 | 12.26937 | 489 ft | 0 kts | 301° |
| 2026-04-21 18:39 | 57.64881 | 12.26936 | 489 ft | 1 kts | 301° |
| 2026-04-21 18:39 | 57.64890 | 12.26914 | 482 ft | 4 kts | 311° |
| 2026-04-21 18:39 | 57.64930 | 12.26859 | 485 ft | 10 kts | 332° |
| 2026-04-21 18:39 | 57.65006 | 12.26831 | 486 ft | 12 kts | 6° |
| 2026-04-21 18:40 | 57.65092 | 12.26895 | 486 ft | 16 kts | 26° |
| 2026-04-21 18:40 | 57.65355 | 12.27134 | 497 ft | 75 kts | 26° |
| 2026-04-21 18:40 | 57.65748 | 12.27493 | 504 ft | 113 kts | 26° |
| 2026-04-21 18:40 | 57.66923 | 12.28580 | 695 ft | 154 kts | 25° |
| 2026-04-21 18:41 | 57.67907 | 12.29488 | 1195 ft | 162 kts | 25° |
| 2026-04-21 18:41 | 57.68917 | 12.30407 | 1830 ft | 165 kts | 24° |
| 2026-04-21 18:41 | 57.69922 | 12.31630 | 2149 ft | 189 kts | 50° |
| 2026-04-21 18:41 | 57.70295 | 12.34105 | 2487 ft | 214 kts | 95° |
| 2026-04-21 18:42 | 57.69936 | 12.36843 | 3235 ft | 219 kts | 104° |
| 2026-04-21 18:42 | 57.69438 | 12.39546 | 4053 ft | 221 kts | 106° |
| 2026-04-21 18:42 | 57.68861 | 12.42218 | 4876 ft | 225 kts | 118° |
| 2026-04-21 18:42 | 57.67754 | 12.44332 | 5640 ft | 235 kts | 146° |
| 2026-04-21 18:43 | 57.66132 | 12.45381 | 6037 ft | 263 kts | 170° |
| 2026-04-21 18:43 | 57.64247 | 12.45825 | 6603 ft | 280 kts | 171° |
| 2026-04-21 18:43 | 57.62296 | 12.46263 | 7399 ft | 284 kts | 171° |
| 2026-04-21 18:43 | 57.60319 | 12.46611 | 8211 ft | 289 kts | 178° |
| 2026-04-21 18:44 | 57.58297 | 12.46601 | 9043 ft | 292 kts | 179° |
| 2026-04-21 18:44 | 57.56250 | 12.46601 | 9851 ft | 296 kts | 178° |
| 2026-04-21 18:44 | 57.54166 | 12.46606 | 10507 ft | 306 kts | 179° |
| 2026-04-21 18:44 | 57.51965 | 12.46199 | 10710 ft | 331 kts | 188° |
| 2026-04-21 18:45 | 57.49618 | 12.45741 | 11042 ft | 345 kts | 180° |
| 2026-04-21 18:45 | 57.47199 | 12.45792 | 11671 ft | 350 kts | 175° |
| 2026-04-21 18:45 | 57.44756 | 12.46097 | 12351 ft | 353 kts | 173° |
| 2026-04-21 18:45 | 57.42296 | 12.46486 | 13055 ft | 356 kts | 173° |
| 2026-04-21 18:46 | 57.39815 | 12.46861 | 13752 ft | 360 kts | 174° |
| 2026-04-21 18:46 | 57.37309 | 12.47182 | 14414 ft | 363 kts | 175° |
| 2026-04-21 18:46 | 57.34774 | 12.47451 | 15017 ft | 366 kts | 175° |
| 2026-04-21 18:46 | 57.32212 | 12.47682 | 15605 ft | 370 kts | 175° |
| 2026-04-21 18:47 | 57.29635 | 12.47895 | 16174 ft | 373 kts | 175° |
| 2026-04-21 18:47 | 57.27024 | 12.48110 | 16761 ft | 377 kts | 175° |
| 2026-04-21 18:47 | 57.24392 | 12.48328 | 17340 ft | 380 kts | 175° |
| 2026-04-21 18:47 | 57.21738 | 12.48552 | 17938 ft | 384 kts | 175° |
| 2026-04-21 18:48 | 57.19059 | 12.48780 | 18519 ft | 387 kts | 175° |
| 2026-04-21 18:48 | 57.16355 | 12.49015 | 19055 ft | 391 kts | 175° |
| 2026-04-21 18:48 | 57.13625 | 12.49253 | 19601 ft | 394 kts | 175° |
| 2026-04-21 18:48 | 57.10877 | 12.49490 | 20146 ft | 397 kts | 175° |
| 2026-04-21 18:49 | 57.08098 | 12.49727 | 20712 ft | 401 kts | 174° |
| 2026-04-21 18:49 | 57.06245 | 12.49884 | 21023 ft | 405 kts | 174° |
| 2026-04-21 18:49 | 57.04374 | 12.50043 | 21252 ft | 407 kts | 174° |
| 2026-04-21 18:49 | 57.00564 | 12.50369 | 21356 ft | 413 kts | 174° |
| 2026-04-21 18:50 | 56.97687 | 12.50619 | 21355 ft | 415 kts | 174° |
| 2026-04-21 18:50 | 56.93860 | 12.50950 | 21349 ft | 415 kts | 174° |
| 2026-04-21 18:50 | 56.91912 | 12.51117 | 21347 ft | 415 kts | 174° |
| 2026-04-21 18:50 | 56.89020 | 12.51361 | 21347 ft | 415 kts | 174° |
| 2026-04-21 18:51 | 56.86133 | 12.51601 | 21341 ft | 415 kts | 174° |
| 2026-04-21 18:51 | 56.83249 | 12.51840 | 21341 ft | 415 kts | 174° |
| 2026-04-21 18:51 | 56.80358 | 12.52084 | 21337 ft | 416 kts | 174° |
| 2026-04-21 18:51 | 56.77475 | 12.52331 | 21336 ft | 416 kts | 174° |
| 2026-04-21 18:52 | 56.74585 | 12.52582 | 21345 ft | 416 kts | 174° |
| 2026-04-21 18:52 | 56.71710 | 12.52831 | 21335 ft | 410 kts | 173° |
| 2026-04-21 18:52 | 56.68875 | 12.53071 | 21329 ft | 407 kts | 173° |
| 2026-04-21 18:52 | 56.66044 | 12.53309 | 20781 ft | 407 kts | 174° |
| 2026-04-21 18:53 | 56.63224 | 12.53545 | 20247 ft | 406 kts | 174° |
| 2026-04-21 18:53 | 56.60404 | 12.53781 | 19764 ft | 403 kts | 174° |
| 2026-04-21 18:53 | 56.57612 | 12.54014 | 19303 ft | 400 kts | 174° |
| 2026-04-21 18:53 | 56.54835 | 12.54245 | 18819 ft | 397 kts | 174° |
| 2026-04-21 18:54 | 56.52086 | 12.54473 | 18317 ft | 394 kts | 174° |
| 2026-04-21 18:54 | 56.49354 | 12.54700 | 17781 ft | 391 kts | 174° |
| 2026-04-21 18:54 | 56.46650 | 12.54923 | 17266 ft | 388 kts | 174° |
| 2026-04-21 18:54 | 56.43968 | 12.55143 | 16745 ft | 384 kts | 174° |
| 2026-04-21 18:55 | 56.42226 | 12.55392 | 16507 ft | 370 kts | 168° |
| 2026-04-21 18:55 | 56.38897 | 12.56619 | 15131 ft | 365 kts | 164° |
| 2026-04-21 18:55 | 56.36426 | 12.57626 | 14170 ft | 362 kts | 164° |
| 2026-04-21 18:55 | 56.33988 | 12.58646 | 13164 ft | 358 kts | 164° |
| 2026-04-21 18:56 | 56.31595 | 12.59648 | 12515 ft | 345 kts | 164° |
| 2026-04-21 18:56 | 56.29310 | 12.60597 | 12048 ft | 329 kts | 164° |
| 2026-04-21 18:56 | 56.27123 | 12.61501 | 11588 ft | 317 kts | 164° |
| 2026-04-21 18:56 | 56.25011 | 12.62372 | 11146 ft | 306 kts | 164° |
| 2026-04-21 18:57 | 56.22946 | 12.63222 | 10729 ft | 304 kts | 164° |
| 2026-04-21 18:57 | 56.20914 | 12.64052 | 10307 ft | 294 kts | 164° |
| 2026-04-21 18:57 | 56.18931 | 12.64855 | 10182 ft | 294 kts | 164° |
| 2026-04-21 18:57 | 56.16933 | 12.65671 | 10059 ft | 293 kts | 164° |
| 2026-04-21 18:58 | 56.14944 | 12.66482 | 9916 ft | 292 kts | 164° |
| 2026-04-21 18:58 | 56.12954 | 12.67295 | 9501 ft | 294 kts | 164° |
| 2026-04-21 18:58 | 56.10956 | 12.68110 | 9144 ft | 293 kts | 164° |
| 2026-04-21 18:58 | 56.08959 | 12.68919 | 8711 ft | 295 kts | 165° |
| 2026-04-21 18:59 | 56.06976 | 12.69723 | 8426 ft | 291 kts | 165° |
| 2026-04-21 18:59 | 56.05003 | 12.70519 | 8081 ft | 290 kts | 165° |
| 2026-04-21 18:59 | 56.03053 | 12.71301 | 7527 ft | 286 kts | 165° |
| 2026-04-21 18:59 | 56.01141 | 12.72067 | 6924 ft | 285 kts | 165° |
| 2026-04-21 19:00 | 55.99214 | 12.72842 | 6301 ft | 283 kts | 165° |
| 2026-04-21 19:00 | 55.97308 | 12.73620 | 5730 ft | 280 kts | 165° |
| 2026-04-21 19:00 | 55.95417 | 12.74400 | 5277 ft | 277 kts | 164° |
| 2026-04-21 19:00 | 55.93566 | 12.75164 | 4859 ft | 269 kts | 165° |
| 2026-04-21 19:01 | 55.91771 | 12.75917 | 4440 ft | 261 kts | 165° |
| 2026-04-21 19:01 | 55.90026 | 12.76672 | 4027 ft | 254 kts | 165° |
| 2026-04-21 19:01 | 55.88338 | 12.77422 | 3645 ft | 246 kts | 165° |
| 2026-04-21 19:01 | 55.86705 | 12.78168 | 3283 ft | 238 kts | 165° |
| 2026-04-21 19:02 | 55.85140 | 12.78901 | 3022 ft | 226 kts | 165° |
| 2026-04-21 19:02 | 55.83620 | 12.79625 | 3005 ft | 227 kts | 164° |
| 2026-04-21 19:02 | 55.82092 | 12.80355 | 3003 ft | 227 kts | 164° |
| 2026-04-21 19:02 | 55.80545 | 12.80873 | 2850 ft | 225 kts | 179° |
| 2026-04-21 19:03 | 55.79000 | 12.80776 | 2671 ft | 219 kts | 185° |
| 2026-04-21 19:03 | 55.77502 | 12.80575 | 2487 ft | 213 kts | 185° |
| 2026-04-21 19:03 | 55.76041 | 12.80371 | 2306 ft | 207 kts | 185° |
| 2026-04-21 19:03 | 55.74621 | 12.80172 | 2132 ft | 202 kts | 186° |
| 2026-04-21 19:04 | 55.73244 | 12.79990 | 2059 ft | 196 kts | 185° |
| 2026-04-21 19:04 | 55.71895 | 12.79816 | 1994 ft | 193 kts | 186° |
| 2026-04-21 19:04 | 55.70618 | 12.79152 | 1997 ft | 191 kts | 212° |
| 2026-04-21 19:04 | 55.69575 | 12.77719 | 1878 ft | 189 kts | 224° |
| 2026-04-21 19:05 | 55.68598 | 12.76185 | 1663 ft | 186 kts | 224° |
| 2026-04-21 19:05 | 55.67639 | 12.74686 | 1416 ft | 183 kts | 225° |
| 2026-04-21 19:05 | 55.66694 | 12.73215 | 1160 ft | 177 kts | 224° |
| 2026-04-21 19:05 | 55.65807 | 12.71837 | 943 ft | 161 kts | 224° |
| 2026-04-21 19:06 | 55.64996 | 12.70578 | 721 ft | 150 kts | 224° |
| 2026-04-21 19:06 | 55.64223 | 12.69376 | 518 ft | 145 kts | 222° |
| 2026-04-21 19:06 | 55.63469 | 12.68205 | 313 ft | 144 kts | 221° |
| 2026-04-21 19:06 | 55.62723 | 12.67046 | 118 ft | 142 kts | 220° |
| 2026-04-21 19:07 | 55.62008 | 12.65943 | 24 ft | 116 kts | 221° |
| 2026-04-21 19:07 | 55.61551 | 12.65220 | 24 ft | 57 kts | 222° |
| 2026-04-21 19:07 | 55.61329 | 12.64860 | 25 ft | 37 kts | 229° |
| 2026-04-21 19:07 | 55.61223 | 12.64455 | 24 ft | 32 kts | 253° |
| 2026-04-21 19:08 | 55.61196 | 12.64179 | 26 ft | 21 kts | 291° |
| 2026-04-21 19:08 | 55.61318 | 12.64149 | 25 ft | 21 kts | 29° |
| 2026-04-21 19:08 | 55.61447 | 12.64300 | 25 ft | 23 kts | 32° |
| 2026-04-21 19:08 | 55.61591 | 12.64467 | 24 ft | 26 kts | 33° |
| 2026-04-21 19:09 | 55.61733 | 12.64566 | 24 ft | 19 kts | 355° |
| 2026-04-21 19:09 | 55.61873 | 12.64518 | 24 ft | 22 kts | 349° |
| 2026-04-21 19:09 | 55.62033 | 12.64464 | 25 ft | 25 kts | 349° |
| 2026-04-21 19:09 | 55.62205 | 12.64407 | 21 ft | 20 kts | 349° |
| 2026-04-21 19:10 | 55.62336 | 12.64421 | 23 ft | 20 kts | 14° |
| 2026-04-21 19:10 | 55.62471 | 12.64479 | 24 ft | 18 kts | 360° |
| 2026-04-21 19:10 | 55.62557 | 12.64319 | 24 ft | 18 kts | 303° |
| 2026-04-21 19:10 | 55.62645 | 12.64296 | 25 ft | 11 kts | 24° |
| 2026-04-21 19:11 | 55.62680 | 12.64360 | 24 ft | 9 kts | 83° |
| 2026-04-21 19:11 | 55.62675 | 12.64428 | 25 ft | 2 kts | 102° |
| 2026-04-21 19:11 | 55.62674 | 12.64437 | 26 ft | 0 kts | 102° |